hivelocity.co.jp alexa rank chart, hivelocity.co.jp alexa rank daily changes

hivelocity.co.jp alexa rank chart, hivelocity.co.jp alexa rank daily changes

hivelocity.co.jp
Actual rank:
158 943

RANK HISTORY

Date Rank Diff
2016/12/02 158 943 -1 125
2016/12/01 160 068 -3 473
2016/11/30 163 541 +12 095
2016/11/29 151 446 +7 903
2016/11/28 143 543 +9 300
2016/11/27 134 243 -2 368
2016/11/26 136 611 +999
2016/11/25 135 612 -3 173
2016/11/24 138 785 +2 142
2016/11/23 136 643 +18 262
2016/11/19 118 381 -4 441
2016/11/18 122 822 -155
2016/11/17 122 977 -2 708
2016/11/16 125 685 +6 091
2016/11/15 119 594 +1 807
2016/11/14 117 787 +3 461
2016/11/13 114 326 -1 053
2016/11/12 115 379 +528
2016/11/11 114 851 -2 129
2016/11/10 116 980 +1 531
2016/11/09 115 449 -4 770
2016/11/08 120 219 +5 090
2016/11/07 115 129 +4 717
2016/11/06 110 412 -1 399
2016/11/05 111 811 +684
2016/11/04 111 127 -75
2016/11/03 111 202 -2 202
2016/11/02 113 404 -3 248
2016/11/01 116 652 +2 652
2016/10/31 114 000 +10 131
2016/10/30 103 869 +730
2016/10/29 103 139 +189
2016/10/28 102 950 -9 613
2016/10/27 112 563 -1 050
2016/10/26 113 613 +471
2016/10/25 113 142 -314
2016/10/24 113 456 +4 672
2016/10/23 108 784 +1 238
2016/10/22 107 546 +8 650
2016/10/21 98 896 -2 770
2016/10/20 101 666 -1 866
2016/10/19 103 532 +3 631
2016/10/18 99 901 +6 751
2016/10/17 93 150 -172
2016/10/16 93 322 +550
2016/10/15 92 772 -12 331
2016/10/14 105 103 +547
2016/10/13 104 556 -3 728
2016/10/12 108 284 -2 820
2016/10/11 111 104 -17 665
2016/10/10 128 769 +1 579
2016/10/09 127 190 -2 090
2016/10/08 129 280 +42 137
2016/10/07 87 143 -70 356
2016/10/06 157 499 +66 555
2016/10/05 90 944 -1 086
2016/10/04 92 030

WIDGET FOR YOUR SITE

DOMAINS WITH THE NEAREST RANK

Domain Rank
sexyeroticgirls.com 158 938
aduana.cl 158 939
forumtravesti.com.br 158 940
classicshorts.com 158 941
naughtyrevenue.com 158 942
hivelocity.co.jp 158 943
lasvegasweekly.com 158 944
anaya.es 158 945
sonokinetic.net 158 946
behtarinideh.com 158 947
sokamocka.com 158 948

DOMAINS WITH THE NEAREST RANK BY TLD .co.jp

Domain Rank
mori.co.jp 158 455
mizuho-am.co.jp 158 565
yoshikawa.co.jp 158 579
m-messe.co.jp 158 738
elsa-jp.co.jp 158 877
hivelocity.co.jp 158 943
smartaleck.co.jp 158 957
acroquest.co.jp 158 964
cfd.co.jp 159 083
igaku-shoin.co.jp 159 347
sanseido-publ.co.jp 159 362